Time,TemperatureF,DewpointF,PressureIn,WindDirection,WindDirectionDegrees,WindSpeedMPH,WindSpeedGustMPH,Humidity,HourlyPrecipIn,Conditions,Clouds,dailyrainin,SolarRadiationWatts/m^2,SoftwareType,DateUTC
2013-01-28 00:04:00,25.0,4.0,-100.00,NW,320,6.0,9.0,39,0.00,,,0.09,0.000000,,2013-01-28 05:04:00,
2013-01-28 00:32:00,24.0,3.0,-100.00,NW,314,5.0,10.0,40,0.00,,,0.09,0.000000,,2013-01-28 05:32:00,
2013-01-28 00:42:00,24.0,3.0,-100.00,NW,314,5.0,10.0,40,0.00,,,0.09,0.000000,,2013-01-28 05:42:00,
2013-01-28 00:52:00,24.0,3.0,-100.00,NW,314,5.0,10.0,40,0.00,,,0.09,0.000000,,2013-01-28 05:52:00,
2013-01-28 01:02:00,24.0,3.0,-100.00,NW,314,5.0,10.0,40,0.00,,,0.09,0.000000,,2013-01-28 06:02:00,
2013-01-28 01:11:00,24.0,3.0,-100.00,NW,314,5.0,10.0,40,0.00,,,0.09,0.000000,,2013-01-28 06:11:00,
2013-01-28 01:32:00,24.0,5.0,-100.00,NW,315,5.0,9.0,44,0.00,,,0.09,0.000000,,2013-01-28 06:32:00,
2013-01-28 01:42:00,24.0,5.0,-100.00,NW,315,5.0,9.0,44,0.00,,,0.09,0.000000,,2013-01-28 06:42:00,
2013-01-28 01:52:00,24.0,5.0,-100.00,NW,315,5.0,9.0,44,0.00,,,0.09,0.000000,,2013-01-28 06:52:00,
2013-01-28 02:03:00,24.0,5.0,-100.00,NW,315,5.0,9.0,44,0.00,,,0.09,0.000000,,2013-01-28 07:03:00,
2013-01-28 02:11:00,24.0,5.0,-100.00,NW,315,5.0,9.0,44,0.00,,,0.09,0.000000,,2013-01-28 07:11:00,
2013-01-28 02:32:00,22.0,4.0,-100.00,WNW,299,3.0,6.0,46,0.00,,,0.09,0.000000,,2013-01-28 07:32:00,
2013-01-28 02:42:00,22.0,4.0,-100.00,WNW,299,3.0,6.0,46,0.00,,,0.09,0.000000,,2013-01-28 07:42:00,
2013-01-28 02:52:00,22.0,4.0,-100.00,WNW,299,3.0,6.0,46,0.00,,,0.09,0.000000,,2013-01-28 07:52:00,
2013-01-28 03:01:00,22.0,4.0,-100.00,WNW,299,3.0,6.0,46,0.00,,,0.09,0.000000,,2013-01-28 08:01:00,
2013-01-28 03:11:00,22.0,4.0,-100.00,WNW,299,3.0,6.0,46,0.00,,,0.09,0.000000,,2013-01-28 08:11:00,
2013-01-28 03:12:00,22.0,5.0,-100.00,NW,313,3.0,7.0,48,0.00,,,0.09,0.000000,,2013-01-28 08:12:00,
2013-01-28 03:32:00,22.0,5.0,-100.00,NW,313,3.0,7.0,48,0.00,,,0.09,0.000000,,2013-01-28 08:32:00,
2013-01-28 03:42:00,22.0,5.0,-100.00,NW,313,3.0,7.0,48,0.00,,,0.09,0.000000,,2013-01-28 08:42:00,
2013-01-28 03:52:00,22.0,5.0,-100.00,NW,313,3.0,7.0,48,0.00,,,0.09,0.000000,,2013-01-28 08:52:00,
2013-01-28 04:02:00,22.0,5.0,-100.00,NW,313,3.0,7.0,48,0.00,,,0.09,0.000000,,2013-01-28 09:02:00,
2013-01-28 04:32:00,22.0,7.0,-100.00,NW,311,3.0,6.0,51,0.00,,,0.09,0.000000,,2013-01-28 09:32:00,
2013-01-28 04:42:00,22.0,7.0,-100.00,NW,311,3.0,6.0,51,0.00,,,0.09,0.000000,,2013-01-28 09:42:00,
2013-01-28 04:52:00,22.0,7.0,-100.00,NW,311,3.0,6.0,51,0.00,,,0.09,0.000000,,2013-01-28 09:52:00,
2013-01-28 05:02:00,22.0,7.0,-100.00,NW,311,3.0,6.0,51,0.00,,,0.09,0.000000,,2013-01-28 10:02:00,
2013-01-28 05:11:00,22.0,7.0,-100.00,NW,311,3.0,6.0,51,0.00,,,0.09,0.000000,,2013-01-28 10:11:00,
2013-01-28 05:32:00,22.0,7.0,-100.00,NW,321,3.0,6.0,52,0.00,,,0.09,0.000000,,2013-01-28 10:32:00,
2013-01-28 05:42:00,22.0,7.0,-100.00,NW,321,3.0,6.0,52,0.00,,,0.09,0.000000,,2013-01-28 10:42:00,
2013-01-28 05:52:00,22.0,7.0,-100.00,NW,321,3.0,6.0,52,0.00,,,0.09,0.000000,,2013-01-28 10:52:00,
2013-01-28 06:02:00,22.0,7.0,-100.00,NW,321,3.0,6.0,52,0.00,,,0.09,0.000000,,2013-01-28 11:02:00,
2013-01-28 06:11:00,22.0,7.0,-100.00,NW,321,3.0,6.0,52,0.00,,,0.09,0.000000,,2013-01-28 11:11:00,
2013-01-28 06:12:00,20.0,5.0,-100.00,WNW,294,2.0,5.0,52,0.00,,,0.09,0.000000,,2013-01-28 11:12:00,
2013-01-28 06:32:00,20.0,5.0,-100.00,WNW,294,2.0,5.0,52,0.00,,,0.09,0.000000,,2013-01-28 11:32:00,
2013-01-28 06:42:00,20.0,5.0,-100.00,WNW,294,2.0,5.0,52,0.00,,,0.09,0.000000,,2013-01-28 11:42:00,
2013-01-28 06:52:00,20.0,5.0,-100.00,WNW,294,2.0,5.0,52,0.00,,,0.09,0.000000,,2013-01-28 11:52:00,
2013-01-28 07:03:00,20.0,5.0,-100.00,WNW,294,2.0,5.0,52,0.00,,,0.09,0.000000,,2013-01-28 12:03:00,
2013-01-28 07:12:00,20.0,6.0,-100.00,NW,324,2.0,4.0,53,0.00,,,0.09,6.000000,,2013-01-28 12:12:00,
2013-01-28 07:33:00,20.0,6.0,-100.00,NW,324,2.0,4.0,53,0.00,,,0.09,6.000000,,2013-01-28 12:33:00,
2013-01-28 07:42:00,20.0,6.0,-100.00,NW,324,2.0,4.0,53,0.00,,,0.09,6.000000,,2013-01-28 12:42:00,
2013-01-28 07:53:00,20.0,6.0,-100.00,NW,324,2.0,4.0,53,0.00,,,0.09,6.000000,,2013-01-28 12:53:00,
2013-01-28 08:03:00,20.0,6.0,-100.00,NW,324,2.0,4.0,53,0.00,,,0.09,6.000000,,2013-01-28 13:03:00,
2013-01-28 08:12:00,25.0,9.0,-100.00,West,268,1.0,2.0,50,0.00,,,0.09,80.000000,,2013-01-28 13:12:00,
2013-01-28 08:33:00,25.0,9.0,-100.00,West,268,1.0,2.0,50,0.00,,,0.09,80.000000,,2013-01-28 13:33:00,
2013-01-28 08:43:00,25.0,9.0,-100.00,West,268,1.0,2.0,50,0.00,,,0.09,80.000000,,2013-01-28 13:43:00,
2013-01-28 08:53:00,25.0,9.0,-100.00,West,268,1.0,2.0,50,0.00,,,0.09,80.000000,,2013-01-28 13:53:00,
2013-01-28 09:03:00,25.0,9.0,-100.00,West,268,1.0,2.0,50,0.00,,,0.09,80.000000,,2013-01-28 14:03:00,
2013-01-28 09:12:00,33.0,12.0,-100.00,West,280,3.0,5.0,41,0.00,,,0.09,306.000000,,2013-01-28 14:12:00,
2013-01-28 09:43:00,33.0,12.0,-100.00,West,280,3.0,5.0,41,0.00,,,0.09,306.000000,,2013-01-28 14:43:00,
2013-01-28 09:53:00,33.0,12.0,-100.00,West,280,3.0,5.0,41,0.00,,,0.09,306.000000,,2013-01-28 14:53:00,
2013-01-28 10:03:00,33.0,12.0,-100.00,West,280,3.0,5.0,41,0.00,,,0.09,306.000000,,2013-01-28 15:03:00,
2013-01-28 10:12:00,32.0,15.0,-100.00,SW,232,4.0,8.0,49,0.00,,,0.09,367.000000,,2013-01-28 15:12:00,
2013-01-28 10:33:00,32.0,15.0,-100.00,SW,232,4.0,8.0,49,0.00,,,0.09,367.000000,,2013-01-28 15:33:00,
2013-01-28 10:43:00,32.0,15.0,-100.00,SW,232,4.0,8.0,49,0.00,,,0.09,367.000000,,2013-01-28 15:43:00,
2013-01-28 10:53:00,32.0,15.0,-100.00,SW,232,4.0,8.0,49,0.00,,,0.09,367.000000,,2013-01-28 15:53:00,
2013-01-28 11:04:00,32.0,15.0,-100.00,SW,232,4.0,8.0,49,0.00,,,0.09,367.000000,,2013-01-28 16:04:00,
2013-01-28 11:12:00,32.0,15.0,-100.00,WSW,246,4.0,9.0,49,0.01,,,0.08,339.000000,,2013-01-28 16:12:00,
2013-01-28 11:33:00,32.0,15.0,-100.00,WSW,246,4.0,9.0,49,0.01,,,0.08,339.000000,,2013-01-28 16:33:00,
2013-01-28 11:43:00,32.0,15.0,-100.00,WSW,246,4.0,9.0,49,0.01,,,0.08,339.000000,,2013-01-28 16:43:00,
2013-01-28 11:53:00,32.0,15.0,-100.00,WSW,246,4.0,9.0,49,0.01,,,0.08,339.000000,,2013-01-28 16:53:00,
2013-01-28 12:02:00,32.0,15.0,-100.00,WSW,246,4.0,9.0,49,0.01,,,0.08,339.000000,,2013-01-28 17:02:00,
2013-01-28 12:12:00,31.0,12.0,-100.00,SW,224,4.0,7.0,44,0.01,,,0.07,289.000000,,2013-01-28 17:12:00,
2013-01-28 12:33:00,31.0,12.0,-100.00,SW,224,4.0,7.0,44,0.01,,,0.07,289.000000,,2013-01-28 17:33:00,
2013-01-28 12:42:00,31.0,12.0,-100.00,SW,224,4.0,7.0,44,0.01,,,0.07,289.000000,,2013-01-28 17:42:00,
2013-01-28 12:53:00,31.0,12.0,-100.00,SW,224,4.0,7.0,44,0.01,,,0.07,289.000000,,2013-01-28 17:53:00,
2013-01-28 13:03:00,31.0,12.0,-100.00,SW,224,4.0,7.0,44,0.01,,,0.07,289.000000,,2013-01-28 18:03:00,
2013-01-28 13:12:00,31.0,12.0,-100.00,WSW,237,3.0,10.0,45,0.00,,,0.06,213.000000,,2013-01-28 18:12:00,
2013-01-28 13:33:00,31.0,12.0,-100.00,WSW,237,3.0,10.0,45,0.00,,,0.06,213.000000,,2013-01-28 18:33:00,
2013-01-28 13:43:00,31.0,12.0,-100.00,WSW,237,3.0,10.0,45,0.00,,,0.06,213.000000,,2013-01-28 18:43:00,
2013-01-28 13:53:00,31.0,12.0,-100.00,WSW,237,3.0,10.0,45,0.00,,,0.06,213.000000,,2013-01-28 18:53:00,
2013-01-28 14:03:00,31.0,12.0,-100.00,WSW,237,3.0,10.0,45,0.00,,,0.06,213.000000,,2013-01-28 19:03:00,
2013-01-28 14:12:00,31.0,4.0,-100.00,SSW,212,3.0,9.0,31,0.00,,,0.06,174.000000,,2013-01-28 19:12:00,
2013-01-28 14:43:00,31.0,4.0,-100.00,SSW,212,3.0,9.0,31,0.00,,,0.06,174.000000,,2013-01-28 19:43:00,
2013-01-28 14:53:00,31.0,4.0,-100.00,SSW,212,3.0,9.0,31,0.00,,,0.06,174.000000,,2013-01-28 19:53:00,
2013-01-28 15:03:00,31.0,4.0,-100.00,SSW,212,3.0,9.0,31,0.00,,,0.06,174.000000,,2013-01-28 20:03:00,
2013-01-28 15:12:00,30.0,6.0,-100.00,SSW,200,3.0,6.0,36,0.00,,,0.04,107.000000,,2013-01-28 20:12:00,
2013-01-28 15:33:00,30.0,6.0,-100.00,SSW,200,3.0,6.0,36,0.00,,,0.04,107.000000,,2013-01-28 20:33:00,
2013-01-28 15:43:00,30.0,6.0,-100.00,SSW,200,3.0,6.0,36,0.00,,,0.04,107.000000,,2013-01-28 20:43:00,
2013-01-28 15:53:00,30.0,6.0,-100.00,SSW,200,3.0,6.0,36,0.00,,,0.04,107.000000,,2013-01-28 20:53:00,
2013-01-28 16:03:00,30.0,6.0,-100.00,SSW,200,3.0,6.0,36,0.00,,,0.04,107.000000,,2013-01-28 21:03:00,
2013-01-28 16:12:00,28.0,14.0,-100.00,South,189,3.0,9.0,54,0.00,,,0.02,49.000000,,2013-01-28 21:12:00,
2013-01-28 16:34:00,28.0,14.0,-100.00,South,189,3.0,9.0,54,0.00,,,0.02,49.000000,,2013-01-28 21:34:00,
2013-01-28 16:43:00,28.0,14.0,-100.00,South,189,3.0,9.0,54,0.00,,,0.02,49.000000,,2013-01-28 21:43:00,
2013-01-28 16:53:00,28.0,14.0,-100.00,South,189,3.0,9.0,54,0.00,,,0.02,49.000000,,2013-01-28 21:53:00,
2013-01-28 17:02:00,28.0,14.0,-100.00,South,189,3.0,9.0,54,0.00,,,0.02,49.000000,,2013-01-28 22:02:00,
2013-01-28 17:12:00,26.0,22.0,-100.00,ENE,59,1.0,4.0,84,0.00,,,-99.99,5.000000,,2013-01-28 22:12:00,
2013-01-28 17:33:00,26.0,22.0,-100.00,ENE,59,1.0,4.0,84,0.00,,,-99.99,5.000000,,2013-01-28 22:33:00,
2013-01-28 17:42:00,26.0,22.0,-100.00,ENE,59,1.0,4.0,84,0.00,,,-99.99,5.000000,,2013-01-28 22:42:00,
2013-01-28 17:52:00,26.0,22.0,-100.00,ENE,59,1.0,4.0,84,0.00,,,-99.99,5.000000,,2013-01-28 22:52:00,
2013-01-28 18:03:00,26.0,22.0,-100.00,ENE,59,1.0,4.0,84,0.00,,,-99.99,5.000000,,2013-01-28 23:03:00,
2013-01-28 18:12:00,26.0,24.0,-100.00,ESE,107,3.0,5.0,91,0.00,,,0.02,0.000000,,2013-01-28 23:12:00,
2013-01-28 18:33:00,26.0,24.0,-100.00,ESE,107,3.0,5.0,91,0.00,,,0.02,0.000000,,2013-01-28 23:33:00,
2013-01-28 18:42:00,26.0,24.0,-100.00,ESE,107,3.0,5.0,91,0.00,,,0.02,0.000000,,2013-01-28 23:42:00,
2013-01-28 18:53:00,26.0,24.0,-100.00,ESE,107,3.0,5.0,91,0.00,,,0.02,0.000000,,2013-01-28 23:53:00,
2013-01-28 19:02:00,26.0,24.0,-100.00,ESE,107,3.0,5.0,91,0.00,,,0.02,0.000000,,2013-01-29 00:02:00,
2013-01-28 19:12:00,28.0,27.0,-100.00,ESE,116,4.0,7.0,94,0.00,,,0.02,0.000000,,2013-01-29 00:12:00,
2013-01-28 19:33:00,28.0,27.0,-100.00,ESE,116,4.0,7.0,94,0.00,,,0.02,0.000000,,2013-01-29 00:33:00,
2013-01-28 19:42:00,28.0,27.0,-100.00,ESE,116,4.0,7.0,94,0.00,,,0.02,0.000000,,2013-01-29 00:42:00,
2013-01-28 19:52:00,28.0,27.0,-100.00,ESE,116,4.0,7.0,94,0.00,,,0.02,0.000000,,2013-01-29 00:52:00,
2013-01-28 20:02:00,28.0,27.0,-100.00,ESE,116,4.0,7.0,94,0.00,,,0.02,0.000000,,2013-01-29 01:02:00,
2013-01-28 20:12:00,30.0,29.0,-100.00,SE,136,4.0,9.0,95,0.00,,,0.02,0.000000,,2013-01-29 01:12:00,
2013-01-28 20:32:00,30.0,29.0,-100.00,SE,136,4.0,9.0,95,0.00,,,0.02,0.000000,,2013-01-29 01:32:00,
2013-01-28 20:42:00,30.0,29.0,-100.00,SE,136,4.0,9.0,95,0.00,,,0.02,0.000000,,2013-01-29 01:42:00,
2013-01-28 20:53:00,30.0,29.0,-100.00,SE,136,4.0,9.0,95,0.00,,,0.02,0.000000,,2013-01-29 01:53:00,
2013-01-28 21:02:00,30.0,29.0,-100.00,SE,136,4.0,9.0,95,0.00,,,0.02,0.000000,,2013-01-29 02:02:00,
2013-01-28 21:12:00,32.0,31.0,-100.00,SE,145,2.0,8.0,95,0.00,,,0.02,0.000000,,2013-01-29 02:12:00,
2013-01-28 21:42:00,32.0,31.0,-100.00,SE,145,2.0,8.0,95,0.00,,,0.02,0.000000,,2013-01-29 02:42:00,
2013-01-28 21:53:00,32.0,31.0,-100.00,SE,145,2.0,8.0,95,0.00,,,0.02,0.000000,,2013-01-29 02:53:00,
2013-01-28 22:03:00,32.0,31.0,-100.00,SE,145,2.0,8.0,95,0.00,,,0.02,0.000000,,2013-01-29 03:03:00,
2013-01-28 22:12:00,32.0,31.0,-100.00,SE,127,4.0,7.0,95,0.00,,,0.02,0.000000,,2013-01-29 03:12:00,
2013-01-28 22:32:00,32.0,31.0,-100.00,SE,127,4.0,7.0,95,0.00,,,0.02,0.000000,,2013-01-29 03:32:00,
2013-01-28 22:42:00,32.0,31.0,-100.00,SE,127,4.0,7.0,95,0.00,,,0.02,0.000000,,2013-01-29 03:42:00,
2013-01-28 22:53:00,32.0,31.0,-100.00,SE,127,4.0,7.0,95,0.00,,,0.02,0.000000,,2013-01-29 03:53:00,
2013-01-28 23:02:00,32.0,31.0,-100.00,SE,127,4.0,7.0,95,0.00,,,0.02,0.000000,,2013-01-29 04:02:00,
2013-01-28 23:12:00,33.0,32.0,-100.00,ESE,114,4.0,8.0,96,0.00,,,0.02,0.000000,,2013-01-29 04:12:00,
2013-01-28 23:32:00,33.0,32.0,-100.00,ESE,114,4.0,8.0,96,0.00,,,0.02,0.000000,,2013-01-29 04:32:00,
2013-01-28 23:42:00,33.0,32.0,-100.00,ESE,114,4.0,8.0,96,0.00,,,0.02,0.000000,,2013-01-29 04:42:00,
2013-01-28 23:52:00,33.0,32.0,-100.00,ESE,114,4.0,8.0,96,0.00,,,0.02,0.000000,,2013-01-29 04:52:00,